Austin, TX (78715)

7:42 PM CDT on July 28, 2016 (GMT -0500)
Garrison Park | | Change Station

Elev 698 ft 30.22 °N, 97.80 °W | Updated 9 minutes ago

Mostly Cloudy
Mostly Cloudy
83.3 °F
Feels Like 90 °F
N
1.9
Wind Variable Wind from SE
Gusts 6.2 mph

Today
High -- | Low -- °F
--% Chance of Precip.
Yesterday
High -- | Low -- °F
Precip. -- in
Pressure 29.91 in
Visibility 10.0 miles
Clouds Scattered Clouds 11000 ft
Mostly Cloudy 20000 ft
Heat Index 90 °F
Dew Point 74 °F
Humidity 73%
Rainfall 0.00 in
Snow Depth Not available.
6:47 AM 8:27 PM
Waning Crescent, 27% visible
METAR KAUS 282353Z 18006KT 10SM SCT110 BKN200 27/22 A2994 RMK AO2 SLP128 60000 T02720222 10350 20256 55021
Pressure 29.91 in
Visibility 10.0 miles
Clouds Scattered Clouds 11000 ft
Mostly Cloudy 20000 ft
Heat Index 90 °F
Dew Point 74 °F
Humidity 73%
Rainfall 0.00 in
Snow Depth Not available.
6:47 AM 8:27 PM
Waning Crescent, 27% visible
METAR KAUS 282353Z 18006KT 10SM SCT110 BKN200 27/22 A2994 RMK AO2 SLP128 60000 T02720222 10350 20256 55021

10-Day Weather Forecast

Almanac

Astronomy

Jul. 28, 2016 Rise Set
Actual Time
Civil Twilight
Nautical Twilight
Astronomical Twilight
Moon
Length of Visible Light
Length of Day
Tomorrow will be .
, % of the Moon is Illuminated

Today's Extremes

State Highs State Lows

Community

WunderPhotos

Upload Photos

1,928,240 photos uploaded!

WunderBlog® & News

Nearby

Air Quality

  Air Quality AQ Index Pollutant
Not available.

Snow Depth

Station Depth Elevation

Earthquake Activity

City Distance Mag. Time & Date
Minimum magnitude displayed is 2.5.

Coastal Water Temperatures

Place Temperature

Stations

Nearby Weather Stations

Station Location Temp. Windchill Dew Point Humidity Wind Precip. Elev Updated Type
                   

Watches & Warnings

There are currently no watches in effect.